Time;durP1;ratioP1;P1;durP2;ratioP2;P2;SDS_P1;SDS_P2;PMS_P1;PMS_P2;Temp;Humidity;BMP_temperature;BMP_pressure;BME280_temperature;BME280_humidity;BME280_pressure;Samples;Min_cycle;Max_cycle;Signal;HPM_P1;HPM_P2
2021/07/29 00:00:56;;;;;;;7.95;4.63;;;;;;;20.15;67.53;100218.13;4864799;28;121451;-72
2021/07/29 00:03:22;;;;;;;10.35;5.10;;;;;;;20.11;67.59;100206.50;4866077;28;120069;-73
2021/07/29 00:05:49;;;;;;;12.82;4.93;;;;;;;20.09;67.37;100209.81;4860614;28;121091;-72
2021/07/29 00:08:16;;;;;;;9.27;4.80;;;;;;;20.06;67.50;100202.53;5028893;22;121229;-79
2021/07/29 00:10:42;;;;;;;12.27;4.90;;;;;;;19.99;67.66;100194.03;4885101;28;120229;-82
2021/07/29 00:13:10;;;;;;;12.40;4.95;;;;;;;20.01;67.73;100203.38;4866348;28;121531;-79
2021/07/29 00:15:36;;;;;;;9.50;4.90;;;;;;;19.97;67.88;100191.03;4869246;28;119500;-79
2021/07/29 00:20:29;;;;;;;14.45;5.38;;;;;;;19.91;67.90;100194.66;4869972;28;120320;-79
2021/07/29 00:23:00;;;;;;;12.07;5.22;;;;;;;19.93;67.92;100192.09;4881428;28;119943;-81
2021/07/29 00:25:27;;;;;;;11.35;5.07;;;;;;;19.92;67.92;100187.06;4841260;28;119975;-79
2021/07/29 00:27:55;;;;;;;9.15;5.00;;;;;;;19.88;68.03;100183.81;4872366;28;120496;-81
2021/07/29 00:30:23;;;;;;;12.80;5.47;;;;;;;19.93;67.72;100177.41;4883983;28;120314;-79
2021/07/29 00:32:51;;;;;;;14.13;5.18;;;;;;;19.89;68.24;100169.38;4866354;28;121000;-79
2021/07/29 00:35:17;;;;;;;10.48;5.10;;;;;;;19.89;68.10;100171.41;4852394;28;120554;-79
2021/07/29 00:37:49;;;;;;;16.67;5.50;;;;;;;19.90;68.60;100170.13;4867568;28;120075;-82
2021/07/29 00:40:16;;;;;;;13.45;5.32;;;;;;;19.89;68.34;100165.84;4851103;28;122860;-79
2021/07/29 00:42:42;;;;;;;15.98;5.38;;;;;;;19.87;67.96;100163.59;4866613;28;121853;-81
2021/07/29 00:45:08;;;;;;;17.45;6.03;;;;;;;19.88;68.23;100172.69;4867442;28;120227;-80
2021/07/29 00:47:35;;;;;;;10.88;5.60;;;;;;;19.86;68.15;100161.31;4866142;28;120594;-81
2021/07/29 00:50:01;;;;;;;15.55;5.75;;;;;;;19.84;68.21;100161.09;4874655;28;120154;-79
2021/07/29 00:52:27;;;;;;;16.13;6.53;;;;;;;19.77;68.57;100147.78;4862443;28;121726;-79
2021/07/29 00:54:53;;;;;;;14.98;7.22;;;;;;;19.83;68.91;100156.81;4869035;28;120006;-80
2021/07/29 00:57:23;;;;;;;13.82;7.05;;;;;;;19.82;68.92;100153.28;4872781;28;120654;-79
2021/07/29 00:59:49;;;;;;;16.45;7.22;;;;;;;19.85;68.66;100148.66;4866370;28;123528;-79
2021/07/29 01:02:15;;;;;;;13.93;7.45;;;;;;;19.87;68.65;100148.91;4852995;28;120048;-79
2021/07/29 01:04:41;;;;;;;18.25;8.65;;;;;;;19.85;68.59;100145.88;4878386;28;119921;-79
2021/07/29 01:07:07;;;;;;;17.98;8.68;;;;;;;19.88;68.95;100134.47;4859993;28;120771;-80
2021/07/29 01:09:32;;;;;;;19.17;8.50;;;;;;;19.89;68.77;100135.97;4865648;28;122001;-80
2021/07/29 01:11:58;;;;;;;18.48;7.95;;;;;;;19.90;69.13;100145.84;4871659;28;120653;-79
2021/07/29 01:14:26;;;;;;;16.25;8.27;;;;;;;19.88;68.97;100133.72;4870118;28;120219;-79
2021/07/29 01:16:51;;;;;;;19.60;9.63;;;;;;;19.86;69.34;100125.13;4851458;28;122058;-79
2021/07/29 01:19:22;;;;;;;19.45;9.20;;;;;;;19.91;69.10;100125.06;4849646;28;121003;-79
2021/07/29 01:21:48;;;;;;;16.08;8.88;;;;;;;19.93;69.36;100118.97;4867335;28;120979;-79
2021/07/29 01:24:13;;;;;;;16.02;9.75;;;;;;;19.93;69.21;100118.97;4882572;28;120457;-80
2021/07/29 01:26:39;;;;;;;18.73;9.63;;;;;;;19.93;69.01;100116.19;4865015;28;120498;-79
2021/07/29 01:29:08;;;;;;;18.38;9.27;;;;;;;19.95;69.25;100121.22;4882136;28;120066;-79
2021/07/29 01:31:37;;;;;;;18.77;9.38;;;;;;;19.93;68.82;100121.75;4841036;28;119873;-79
2021/07/29 01:34:03;;;;;;;16.85;9.80;;;;;;;19.92;69.01;100111.91;4858165;28;122186;-79
2021/07/29 01:36:28;;;;;;;18.02;10.10;;;;;;;19.93;68.93;100108.59;4849341;28;119893;-83
2021/07/29 01:38:54;;;;;;;21.00;9.05;;;;;;;19.90;68.72;100097.78;4881910;28;121180;-81
2021/07/29 01:41:19;;;;;;;21.02;9.93;;;;;;;19.92;68.85;100100.78;4857791;28;120098;-79
2021/07/29 01:43:45;;;;;;;23.30;9.90;;;;;;;19.88;68.68;100092.72;4853555;28;119683;-79
2021/07/29 01:46:15;;;;;;;21.45;9.23;;;;;;;19.93;68.79;100097.47;4865620;28;120009;-80
2021/07/29 01:48:43;;;;;;;22.48;9.48;;;;;;;19.94;69.07;100092.63;4882644;28;119957;-79
2021/07/29 01:51:09;;;;;;;19.48;9.20;;;;;;;19.91;69.24;100088.88;4865294;28;119906;-81
2021/07/29 01:53:34;;;;;;;18.00;9.57;;;;;;;19.95;69.18;100082.25;4870424;28;119944;-81
2021/07/29 01:56:00;;;;;;;14.38;8.07;;;;;;;19.99;68.89;100088.25;4852247;28;119938;-79
2021/07/29 01:58:25;;;;;;;19.23;9.07;;;;;;;19.94;69.04;100084.28;4865711;28;122629;-80
2021/07/29 02:00:53;;;;;;;17.08;9.20;;;;;;;19.98;68.77;100081.94;4864556;28;120086;-79
2021/07/29 02:03:19;;;;;;;19.08;8.65;;;;;;;20.00;68.88;100095.34;4866724;28;120034;-79
2021/07/29 02:05:44;;;;;;;13.75;8.35;;;;;;;19.98;69.08;100084.72;4866592;28;120182;-80
2021/07/29 02:08:10;;;;;;;22.23;9.48;;;;;;;19.96;68.77;100081.72;4868235;28;120377;-79
2021/07/29 02:10:36;;;;;;;16.58;8.05;;;;;;;19.97;68.38;100079.69;4834210;28;122169;-80
2021/07/29 02:13:03;;;;;;;16.48;8.07;;;;;;;19.95;68.81;100074.66;4865997;28;121891;-79
2021/07/29 02:15:29;;;;;;;17.83;8.68;;;;;;;19.94;68.96;100081.50;4870574;28;120970;-79
2021/07/29 02:17:55;;;;;;;16.63;8.50;;;;;;;19.90;68.46;100067.16;4866050;28;120989;-79
2021/07/29 02:20:25;;;;;;;12.82;7.90;;;;;;;19.90;68.50;100062.34;4866906;28;120025;-79
2021/07/29 02:22:51;;;;;;;17.65;8.18;;;;;;;19.87;68.46;100062.63;4863722;28;120340;-79
2021/07/29 02:25:17;;;;;;;18.60;8.75;;;;;;;19.89;68.96;100062.88;4848372;28;120599;-83
2021/07/29 02:27:46;;;;;;;18.70;8.30;;;;;;;19.89;68.69;100065.66;4835708;28;120873;-79
2021/07/29 02:30:11;;;;;;;16.02;8.60;;;;;;;19.89;68.76;100060.09;4851306;28;119967;-79
2021/07/29 02:32:41;;;;;;;18.75;8.85;;;;;;;19.85;68.42;100062.41;4825133;28;121834;-80
2021/07/29 02:35:07;;;;;;;18.92;7.88;;;;;;;19.87;67.95;100066.19;4851150;28;120088;-80
2021/07/29 02:37:32;;;;;;;16.58;8.00;;;;;;;19.84;68.27;100058.13;4869759;28;119860;-80
2021/07/29 02:39:58;;;;;;;13.38;8.20;;;;;;;19.80;68.17;100064.00;4866647;28;120099;-81
2021/07/29 02:42:24;;;;;;;18.20;8.40;;;;;;;19.78;68.47;100058.22;4850740;28;120025;-79
2021/07/29 02:44:52;;;;;;;23.50;8.82;;;;;;;19.79;68.36;100058.97;4865447;28;123806;-79
2021/07/29 02:47:17;;;;;;;25.10;8.70;;;;;;;19.74;68.27;100054.25;4882994;28;119564;-78
2021/07/29 02:49:43;;;;;;;13.75;8.55;;;;;;;19.73;68.58;100052.75;4845566;28;120312;-79
2021/07/29 02:52:09;;;;;;;18.27;7.93;;;;;;;19.67;67.99;100050.03;4869582;28;121762;-80
2021/07/29 02:54:34;;;;;;;21.75;8.30;;;;;;;19.71;68.20;100064.41;4879296;28;120044;-80
2021/07/29 02:57:00;;;;;;;15.82;7.60;;;;;;;19.69;68.31;100052.31;4869662;28;119855;-79
2021/07/29 02:59:26;;;;;;;13.13;7.22;;;;;;;19.60;67.91;100037.47;4842133;28;121686;-80
2021/07/29 03:01:51;;;;;;;14.48;7.40;;;;;;;19.63;67.84;100041.97;4871382;28;120216;-79
2021/07/29 03:04:17;;;;;;;13.85;7.97;;;;;;;19.62;68.21;100037.69;4865955;28;120369;-83
2021/07/29 03:06:43;;;;;;;18.92;7.80;;;;;;;19.59;67.99;100029.66;4872220;28;120344;-79
2021/07/29 03:09:11;;;;;;;15.95;8.30;;;;;;;19.58;67.94;100028.91;4870370;28;120023;-79
2021/07/29 03:11:37;;;;;;;14.10;7.35;;;;;;;19.56;68.29;100034.25;4868919;28;120543;-80
2021/07/29 03:14:03;;;;;;;13.40;7.32;;;;;;;19.55;67.88;100029.97;4860568;28;119867;-80
2021/07/29 03:16:31;;;;;;;18.80;7.28;;;;;;;19.51;67.68;100021.16;4876973;28;119698;-81
2021/07/29 03:18:56;;;;;;;14.48;7.70;;;;;;;19.50;67.71;100019.66;4870381;28;120190;-79
2021/07/29 03:21:25;;;;;;;17.55;8.57;;;;;;;19.45;67.88;100014.94;4869651;28;120853;-79
2021/07/29 03:23:50;;;;;;;15.10;7.53;;;;;;;19.48;68.06;100019.44;4853633;28;120756;-79
2021/07/29 03:26:16;;;;;;;17.08;7.63;;;;;;;19.47;67.85;100014.41;4869970;28;120036;-81
2021/07/29 03:28:41;;;;;;;13.27;7.85;;;;;;;19.42;68.48;100004.88;4867240;28;120119;-79
2021/07/29 03:31:10;;;;;;;17.85;7.88;;;;;;;19.43;67.98;100019.53;4868917;28;119885;-80
2021/07/29 03:33:37;;;;;;;17.40;8.43;;;;;;;19.42;67.75;100010.44;4871129;28;120514;-79
2021/07/29 03:36:04;;;;;;;29.83;9.07;;;;;;;19.41;68.33;100008.94;4851712;28;121477;-80
2021/07/29 03:38:30;;;;;;;17.25;8.65;;;;;;;19.42;68.77;100015.25;4867282;28;120241;-79
2021/07/29 03:40:56;;;;;;;14.00;8.48;;;;;;;19.44;68.64;100015.47;4885202;28;125904;-79
2021/07/29 03:43:21;;;;;;;16.08;8.50;;;;;;;19.46;68.95;100019.22;4856722;28;120273;-80
2021/07/29 03:45:47;;;;;;;13.73;8.32;;;;;;;19.44;68.62;100015.47;4871431;28;120666;-79
2021/07/29 03:48:13;;;;;;;15.85;8.55;;;;;;;19.42;68.64;100013.22;4865711;28;121011;-80
2021/07/29 03:50:40;;;;;;;15.02;7.90;;;;;;;19.46;68.48;100015.69;4884021;28;120248;-79
2021/07/29 03:53:05;;;;;;;14.18;8.73;;;;;;;19.44;68.56;100015.47;4866305;28;119834;-80
2021/07/29 03:55:33;;;;;;;15.48;8.20;;;;;;;19.44;68.74;100021.03;4851540;28;120479;-80
2021/07/29 03:57:59;;;;;;;14.68;8.40;;;;;;;19.48;68.68;100008.31;4868094;28;121915;-79
2021/07/29 04:00:25;;;;;;;12.82;7.93;;;;;;;19.53;68.84;100015.84;4866969;28;120280;-79
2021/07/29 04:02:53;;;;;;;13.40;8.23;;;;;;;19.54;68.70;100016.59;4871293;28;120286;-79
2021/07/29 04:05:19;;;;;;;12.63;8.05;;;;;;;19.51;68.54;100012.81;4853980;28;119818;-79
2021/07/29 04:07:45;;;;;;;13.00;7.68;;;;;;;19.51;68.55;99998.91;4849156;28;121722;-79
2021/07/29 04:10:15;;;;;;;16.42;8.00;;;;;;;19.54;68.80;100005.47;4868320;28;122539;-79
2021/07/29 04:12:40;;;;;;;16.13;7.70;;;;;;;19.57;68.45;99993.28;4869883;28;119959;-79
2021/07/29 04:15:06;;;;;;;11.43;7.10;;;;;;;19.57;68.15;99991.25;4868203;28;121253;-81
2021/07/29 04:17:32;;;;;;;13.48;7.47;;;;;;;19.65;68.41;99994.19;4869028;28;121220;-82
2021/07/29 04:19:59;;;;;;;12.27;7.65;;;;;;;19.65;68.33;99993.44;4858303;28;119864;-79
2021/07/29 04:22:25;;;;;;;15.35;7.78;;;;;;;19.71;68.50;99985.75;4836133;28;120656;-79
2021/07/29 04:24:55;;;;;;;12.70;7.95;;;;;;;19.74;68.36;99998.59;4854662;28;121400;-79
2021/07/29 04:27:22;;;;;;;16.85;8.15;;;;;;;19.77;68.68;99986.41;4885193;28;121099;-80
2021/07/29 04:29:51;;;;;;;17.08;7.70;;;;;;;19.84;68.22;99994.13;4867779;28;120078;-79
2021/07/29 04:32:16;;;;;;;13.73;6.88;;;;;;;19.82;67.92;99991.88;4844703;28;119867;-82
2021/07/29 04:34:42;;;;;;;15.27;7.50;;;;;;;19.88;68.52;100000.91;4868076;28;121466;-79
2021/07/29 04:37:10;;;;;;;12.77;7.45;;;;;;;19.90;68.51;100000.34;4882632;28;121129;-79
2021/07/29 04:39:38;;;;;;;16.58;7.38;;;;;;;19.88;68.51;99989.00;4870352;28;122247;-79
2021/07/29 04:42:04;;;;;;;14.77;7.05;;;;;;;19.91;68.44;99976.81;4867954;28;120779;-79
2021/07/29 04:44:30;;;;;;;11.25;6.50;;;;;;;19.91;68.03;99994.25;4851792;28;120511;-79
2021/07/29 04:46:55;;;;;;;13.63;7.22;;;;;;;19.92;68.70;100020.81;4839876;28;120224;-80
2021/07/29 04:49:22;;;;;;;13.48;7.03;;;;;;;19.88;68.33;99995.31;4868618;28;127619;-79
2021/07/29 04:51:48;;;;;;;20.60;7.72;;;;;;;19.95;68.50;100016.22;4867539;28;120683;-79
2021/07/29 04:54:14;;;;;;;15.07;6.53;;;;;;;19.99;68.26;100022.22;4870482;28;120166;-80
2021/07/29 04:56:39;;;;;;;14.65;6.75;;;;;;;20.02;68.39;100015.56;4883162;28;120217;-80
2021/07/29 04:59:08;;;;;;;13.98;6.72;;;;;;;20.02;68.57;100007.22;4851229;28;120084;-79
2021/07/29 05:01:38;;;;;;;11.90;7.78;;;;;;;20.06;68.75;100006.91;4867466;28;120407;-79
2021/07/29 05:04:04;;;;;;;14.48;7.05;;;;;;;20.01;69.03;99991.81;4869906;28;120420;-79
2021/07/29 05:06:30;;;;;;;14.35;6.63;;;;;;;20.12;68.60;100007.59;4866771;28;120365;-79
2021/07/29 05:08:56;;;;;;;14.32;6.38;;;;;;;20.14;68.27;100005.00;4871343;28;119825;-79
2021/07/29 05:11:23;;;;;;;14.23;6.05;;;;;;;20.14;68.36;100000.19;4869918;28;120022;-79
2021/07/29 05:13:53;;;;;;;13.15;6.80;;;;;;;20.10;68.03;100002.53;4867758;28;121005;-81
2021/07/29 05:16:20;;;;;;;15.40;6.60;;;;;;;20.15;68.67;100001.69;4867159;28;120709;-79
2021/07/29 05:18:46;;;;;;;9.25;5.65;;;;;;;20.15;68.78;100000.94;4883516;28;120193;-79
2021/07/29 05:21:11;;;;;;;14.55;4.57;;;;;;;20.20;68.16;100005.66;4866148;28;120821;-79
2021/07/29 05:23:37;;;;;;;8.70;4.60;;;;;;;20.24;68.64;100004.06;4835690;28;120494;-80
2021/07/29 05:26:03;;;;;;;13.23;4.75;;;;;;;20.28;68.50;99998.16;4870014;28;120028;-80
2021/07/29 05:28:28;;;;;;;9.90;4.78;;;;;;;20.34;68.49;100004.38;4866041;28;120791;-79
2021/07/29 05:30:54;;;;;;;10.75;3.50;;;;;;;20.37;67.61;100005.34;4871785;28;120389;-79
2021/07/29 05:33:23;;;;;;;11.23;4.15;;;;;;;20.42;67.49;100007.31;4864268;28;120187;-79
2021/07/29 05:35:48;;;;;;;12.88;4.05;;;;;;;20.47;67.71;99992.53;4880695;28;120430;-79
2021/07/29 05:38:15;;;;;;;8.93;3.60;;;;;;;20.44;67.37;99993.59;4850931;28;121512;-79
2021/07/29 05:40:40;;;;;;;9.80;3.55;;;;;;;20.48;66.98;99999.59;4867935;28;122011;-79
2021/07/29 05:43:06;;;;;;;6.90;3.00;;;;;;;20.47;67.24;99993.28;4865449;28;121065;-79
2021/07/29 05:45:32;;;;;;;16.50;4.00;;;;;;;20.40;66.44;99982.78;4868641;28;120511;-80
2021/07/29 05:47:59;;;;;;;12.68;3.40;;;;;;;20.44;66.64;99983.22;4849456;28;120836;-80
2021/07/29 05:50:25;;;;;;;7.85;2.83;;;;;;;20.45;66.13;99992.31;4849050;28;123396;-79
2021/07/29 05:52:51;;;;;;;7.55;2.55;;;;;;;20.50;66.66;99994.25;4886644;28;120498;-79
2021/07/29 05:55:16;;;;;;;10.48;2.90;;;;;;;20.54;66.20;99986.31;4864273;28;122226;-79
2021/07/29 05:57:42;;;;;;;7.40;2.47;;;;;;;20.58;66.15;99981.16;4863509;28;121825;-81
2021/07/29 06:00:11;;;;;;;6.40;2.80;;;;;;;20.59;65.86;99988.25;4868646;28;120948;-79
2021/07/29 06:02:39;;;;;;;8.38;2.80;;;;;;;20.61;66.04;99985.69;4850539;28;120772;-79
2021/07/29 06:05:07;;;;;;;9.65;2.78;;;;;;;20.61;66.28;99982.88;4866086;28;123876;-79
2021/07/29 06:07:36;;;;;;;8.55;2.83;;;;;;;20.63;66.00;99988.66;4867444;28;121608;-79
2021/07/29 06:10:01;;;;;;;7.47;2.60;;;;;;;20.57;65.72;99979.66;4865076;28;120547;-79
2021/07/29 06:12:27;;;;;;;8.48;2.80;;;;;;;20.54;65.38;99984.25;4886944;28;124006;-79
2021/07/29 06:14:54;;;;;;;6.32;2.50;;;;;;;20.58;65.36;99991.53;4860270;28;120242;-79
2021/07/29 06:17:28;;;;;;;7.88;2.35;;;;;;;20.58;65.49;99992.28;4860772;28;121096;-79
2021/07/29 06:19:54;;;;;;;11.90;2.88;;;;;;;20.51;65.60;99971.41;4866064;28;122519;-79
2021/07/29 06:22:20;;;;;;;9.43;2.50;;;;;;;20.66;65.04;99987.59;4864165;28;120936;-79
2021/07/29 06:24:55;;;;;;;7.32;2.33;;;;;;;20.69;65.15;99986.50;4876764;28;121387;-80
2021/07/29 06:27:21;;;;;;;9.10;2.60;;;;;;;20.80;65.41;99997.41;4855421;28;121693;-79
2021/07/29 06:29:47;;;;;;;6.50;2.40;;;;;;;20.85;64.73;100015.34;4844666;28;122136;-80
2021/07/29 06:32:12;;;;;;;6.82;2.45;;;;;;;20.80;64.70;100005.03;4848963;28;121331;-79
2021/07/29 06:34:38;;;;;;;6.30;2.50;;;;;;;20.78;64.37;100022.28;4853073;28;120736;-79
2021/07/29 06:37:04;;;;;;;8.18;2.47;;;;;;;20.63;63.74;100016.53;4861298;28;121098;-79
2021/07/29 06:39:30;;;;;;;6.78;2.25;;;;;;;20.58;63.28;100034.09;4864507;28;121695;-79
2021/07/29 06:41:55;;;;;;;7.55;1.70;;;;;;;20.53;62.95;100021.75;4865587;28;120793;-81
2021/07/29 06:44:21;;;;;;;5.05;1.45;;;;;;;20.49;62.44;100035.28;4868527;28;122179;-79
2021/07/29 06:46:49;;;;;;;3.03;1.30;;;;;;;20.45;61.99;100048.03;4881342;28;121740;-80
2021/07/29 06:49:15;;;;;;;4.60;1.65;;;;;;;20.34;61.23;100034.25;4880677;28;120290;-79
2021/07/29 06:51:41;;;;;;;6.93;1.50;;;;;;;20.34;62.09;100050.97;4880696;28;120646;-79
2021/07/29 06:54:06;;;;;;;4.15;1.35;;;;;;;20.20;61.75;100064.13;4866989;28;120215;-79
2021/07/29 06:56:32;;;;;;;6.80;1.63;;;;;;;20.08;61.97;100071.91;4883116;28;122515;-81
2021/07/29 06:58:58;;;;;;;4.78;1.52;;;;;;;19.96;62.02;100084.50;4868810;28;122799;-79
2021/07/29 07:01:27;;;;;;;5.70;1.42;;;;;;;19.80;62.41;100071.59;4846644;28;120009;-79
2021/07/29 07:03:52;;;;;;;6.80;1.70;;;;;;;19.74;62.64;100073.72;4879493;28;119978;-80
2021/07/29 07:06:18;;;;;;;4.25;1.42;;;;;;;19.65;62.45;100079.69;4844429;28;121460;-79
2021/07/29 07:08:49;;;;;;;4.15;1.55;;;;;;;19.56;62.91;100080.78;4882049;28;120595;-79
2021/07/29 07:11:17;;;;;;;5.10;1.60;;;;;;;19.45;63.03;100084.47;4868411;28;120268;-79
2021/07/29 07:13:45;;;;;;;5.70;1.63;;;;;;;19.44;63.41;100077.41;4866111;28;120450;-81
2021/07/29 07:16:12;;;;;;;5.20;1.52;;;;;;;19.39;62.93;100077.44;4867071;28;120517;-79
2021/07/29 07:18:39;;;;;;;5.63;1.45;;;;;;;19.29;62.70;100065.97;4868879;28;121011;-79
2021/07/29 07:21:06;;;;;;;5.30;1.42;;;;;;;19.36;63.54;100073.69;4879501;28;120034;-79
2021/07/29 07:23:34;;;;;;;4.25;1.60;;;;;;;19.34;63.79;100065.13;4867116;28;120167;-79
2021/07/29 07:26:00;;;;;;;6.00;1.60;;;;;;;19.29;63.92;100052.81;4838910;28;120283;-80
2021/07/29 07:28:26;;;;;;;6.53;1.83;;;;;;;19.33;64.10;100060.84;4864461;28;121018;-81
2021/07/29 07:30:54;;;;;;;2.00;1.17;;;;;;;19.33;63.61;100058.06;4865810;28;120820;-82
2021/07/29 07:33:19;;;;;;;4.05;1.67;;;;;;;19.30;63.55;100050.78;4867780;28;120165;-83
2021/07/29 07:35:45;;;;;;;5.00;1.38;;;;;;;19.39;64.35;100049.66;4862604;28;122253;-79
2021/07/29 07:38:11;;;;;;;5.93;1.70;;;;;;;19.45;64.67;100053.88;4869068;28;120041;-79
2021/07/29 07:40:37;;;;;;;7.22;2.15;;;;;;;19.47;63.65;100059.66;4873900;28;120100;-80
2021/07/29 07:43:03;;;;;;;5.22;1.30;;;;;;;19.61;64.28;100066.06;4885156;28;120061;-79
2021/07/29 07:45:30;;;;;;;3.22;1.30;;;;;;;19.71;64.08;100058.84;4868620;28;120323;-79
2021/07/29 07:47:58;;;;;;;10.43;1.90;;;;;;;19.81;64.22;100042.47;4883455;28;120305;-80
2021/07/29 07:50:24;;;;;;;9.45;1.75;;;;;;;19.91;65.09;100044.34;4869381;28;123780;-79
2021/07/29 07:52:50;;;;;;;5.90;1.92;;;;;;;20.05;64.80;100061.09;4871406;28;120230;-78
2021/07/29 07:55:15;;;;;;;7.43;1.77;;;;;;;20.09;64.87;100070.63;4868090;28;120410;-79
2021/07/29 07:57:41;;;;;;;8.95;2.03;;;;;;;20.11;64.75;100062.50;4867998;28;120966;-79
2021/07/29 08:00:08;;;;;;;5.90;2.15;;;;;;;20.05;65.18;100047.16;4868288;28;120234;-80
2021/07/29 08:02:34;;;;;;;9.68;2.13;;;;;;;20.07;65.36;100052.94;4874264;28;120124;-79
2021/07/29 08:04:59;;;;;;;8.07;2.20;;;;;;;20.05;65.64;100052.72;4867930;28;121417;-80
2021/07/29 08:07:25;;;;;;;9.77;2.00;;;;;;;20.05;65.23;100053.47;4866316;28;120051;-80
2021/07/29 08:09:50;;;;;;;7.47;2.20;;;;;;;20.07;65.57;100058.50;4869274;28;120377;-80
2021/07/29 08:12:19;;;;;;;10.23;2.35;;;;;;;20.11;65.98;100070.88;4869020;28;120899;-79
2021/07/29 08:14:47;;;;;;;10.50;2.35;;;;;;;20.13;66.27;100062.72;4868309;28;120871;-80
2021/07/29 08:17:12;;;;;;;14.10;2.15;;;;;;;20.11;66.02;100073.66;4868163;28;120037;-78
2021/07/29 08:19:38;;;;;;;9.55;2.22;;;;;;;20.09;66.11;100067.84;4868730;28;121409;-79
2021/07/29 08:22:04;;;;;;;7.88;2.00;;;;;;;20.06;66.01;100066.13;4873250;28;120381;-80
2021/07/29 08:24:29;;;;;;;4.88;1.95;;;;;;;20.07;66.21;100081.53;4885373;28;120327;-80
2021/07/29 08:26:57;;;;;;;5.55;2.08;;;;;;;20.04;65.46;100093.00;4868601;28;120446;-79
2021/07/29 08:29:26;;;;;;;2.85;1.08;;;;;;;19.86;64.74;100089.69;4869076;28;120786;-79
2021/07/29 08:31:51;;;;;;;11.00;1.65;;;;;;;19.83;64.45;100115.81;4868931;28;119617;-79
2021/07/29 08:34:17;;;;;;;2.78;1.10;;;;;;;19.67;63.68;100104.94;4850053;28;119871;-80
2021/07/29 08:36:42;;;;;;;4.20;1.25;;;;;;;19.59;63.85;100099.97;4857600;28;119822;-79
2021/07/29 08:39:08;;;;;;;2.08;0.95;;;;;;;19.48;64.06;100088.22;4847457;28;120546;-80
2021/07/29 08:41:35;;;;;;;3.40;1.13;;;;;;;19.37;63.67;100080.75;4853059;28;122808;-81
2021/07/29 08:44:00;;;;;;;2.95;1.10;;;;;;;19.31;63.71;100078.06;4857297;28;120709;-81
2021/07/29 08:46:28;;;;;;;4.65;1.52;;;;;;;19.26;64.11;100073.34;4883251;28;120384;-83
2021/07/29 08:48:54;;;;;;;2.58;1.33;;;;;;;19.21;64.07;100068.59;4855915;28;119726;-79
2021/07/29 08:51:24;;;;;;;3.72;1.30;;;;;;;19.26;64.04;100078.16;4865730;28;120109;-80
2021/07/29 08:53:52;;;;;;;3.00;1.25;;;;;;;19.23;64.07;100070.84;4849005;28;119771;-79
2021/07/29 08:56:23;;;;;;;6.20;1.60;;;;;;;19.16;64.64;100068.66;4885215;28;120629;-79
2021/07/29 08:58:49;;;;;;;6.45;1.58;;;;;;;19.16;64.72;100077.75;4870615;28;119898;-79
2021/07/29 09:01:15;;;;;;;5.78;1.40;;;;;;;19.10;65.12;100079.09;4868159;28;120263;-78
2021/07/29 09:03:44;;;;;;;7.68;1.70;;;;;;;19.10;65.08;100106.88;4851480;28;119800;-79
2021/07/29 09:06:14;;;;;;;7.10;1.88;;;;;;;19.06;65.11;100092.53;4887920;28;119873;-80
2021/07/29 09:08:54;;;;;;;5.30;1.60;;;;;;;19.02;64.96;100082.47;4850827;28;119869;-79
2021/07/29 09:11:29;;;;;;;4.70;1.42;;;;;;;18.99;65.61;100080.75;4830665;28;119773;-79
2021/07/29 09:14:06;;;;;;;7.10;1.65;;;;;;;19.01;65.69;100071.88;4866001;28;119687;-79
2021/07/29 09:16:38;;;;;;;6.85;1.95;;;;;;;19.08;66.51;100071.28;4873427;28;121427;-79
2021/07/29 09:19:06;;;;;;;7.22;1.60;;;;;;;19.21;66.71;100068.59;4885027;28;119711;-79
2021/07/29 09:21:33;;;;;;;11.65;1.90;;;;;;;19.38;66.68;100065.59;4854716;28;119888;-81
2021/07/29 09:24:10;;;;;;;8.25;2.10;;;;;;;19.47;66.78;100068.00;4865881;28;119855;-79
2021/07/29 09:26:56;;;;;;;7.75;2.38;;;;;;;19.55;66.90;100057.03;4841062;28;120500;-81
2021/07/29 09:29:23;;;;;;;10.38;2.13;;;;;;;19.62;67.29;100057.19;4864350;28;120412;-81
2021/07/29 09:32:02;;;;;;;8.93;2.78;;;;;;;19.70;67.17;100051.03;4865215;28;122401;-80
2021/07/29 09:34:40;;;;;;;10.40;2.60;;;;;;;19.76;67.30;100048.91;4857270;28;120273;-79
2021/07/29 09:37:10;;;;;;;8.98;2.65;;;;;;;19.78;67.26;100032.41;4851931;28;120326;-79
2021/07/29 09:39:35;;;;;;;4.78;2.30;;;;;;;19.79;67.16;100033.91;4867575;28;121312;-79
2021/07/29 09:42:22;;;;;;;8.73;2.42;;;;;;;19.86;66.45;100123.09;4866629;28;121452;-80
2021/07/29 09:44:52;;;;;;;8.88;1.92;;;;;;;19.70;65.66;100103.88;4849933;28;120920;-79
2021/07/29 09:47:22;;;;;;;10.88;1.98;;;;;;;19.53;64.81;100090.16;4870332;28;121216;-79
2021/07/29 09:49:49;;;;;;;9.25;2.05;;;;;;;19.37;65.10;100096.69;4876200;28;120294;-79
2021/07/29 09:52:22;;;;;;;9.60;2.10;;;;;;;19.27;65.26;100105.41;4885637;28;120320;-79
2021/07/29 09:54:47;;;;;;;12.88;2.00;;;;;;;19.10;65.22;100112.44;4865755;28;121223;-79
2021/07/29 09:57:13;;;;;;;12.32;2.30;;;;;;;18.93;65.48;100110.63;4866541;28;120410;-81
2021/07/29 09:59:39;;;;;;;13.90;2.50;;;;;;;18.82;65.82;100112.75;4868650;28;120016;-81
2021/07/29 10:02:06;;;;;;;11.50;2.35;;;;;;;18.83;66.59;100128.16;4865542;28;121095;-80
2021/07/29 10:04:53;;;;;;;14.55;2.75;;;;;;;18.71;66.64;100121.97;4853345;28;120025;-79
2021/07/29 10:07:30;;;;;;;11.45;1.92;;;;;;;18.70;67.16;100157.34;4862943;28;121249;-78
2021/07/29 10:09:59;;;;;;;12.30;2.20;;;;;;;18.63;nan;100162.69;4866319;28;119717;-79
2021/07/29 10:12:30;;;;;;;11.70;2.33;;;;;;;18.52;66.92;100160.75;4883900;28;120627;-79
2021/07/29 10:14:57;;;;;;;15.98;2.42;;;;;;;18.39;67.35;100164.13;4866142;28;119652;-79
2021/07/29 10:17:35;;;;;;;15.45;2.20;;;;;;;18.29;67.07;100167.75;4879896;28;120312;-79
2021/07/29 10:20:14;;;;;;;16.73;2.83;;;;;;;18.23;67.89;100178.91;4867992;28;120087;-79
2021/07/29 10:22:44;;;;;;;12.00;2.35;;;;;;;18.21;67.90;100167.53;4866097;28;121361;-79
2021/07/29 10:25:10;;;;;;;13.65;2.30;;;;;;;18.19;68.08;100156.19;4868087;28;119474;-82
2021/07/29 10:27:36;;;;;;;10.38;1.92;;;;;;;18.16;68.15;100157.22;4867649;28;120112;-79
2021/07/29 10:30:20;;;;;;;7.55;1.73;;;;;;;18.15;68.10;100166.81;4872413;28;121734;-79
2021/07/29 10:32:51;;;;;;;9.23;2.03;;;;;;;18.15;68.54;100152.19;4849768;28;120879;-79
2021/07/29 10:35:26;;;;;;;10.27;2.00;;;;;;;18.15;68.78;100141.84;4870345;28;120047;-80
2021/07/29 10:37:55;;;;;;;8.90;1.85;;;;;;;18.17;68.59;100139.31;4866727;28;119982;-79
2021/07/29 10:40:34;;;;;;;9.00;1.83;;;;;;;18.28;68.89;100133.69;4865965;28;120118;-79
2021/07/29 10:43:25;;;;;;;12.52;2.10;;;;;;;18.38;69.00;100129.28;4862429;28;120162;-79
2021/07/29 10:45:52;;;;;;;10.52;1.60;;;;;;;18.48;68.81;100123.44;4866273;28;121503;-79
2021/07/29 10:48:51;;;;;;;9.85;1.90;;;;;;;18.55;68.83;100120.81;4884349;28;119769;-78
2021/07/29 10:51:25;;;;;;;8.40;1.80;;;;;;;18.56;68.51;100107.69;4849561;28;120182;-78
2021/07/29 10:53:50;;;;;;;;;;;;;;;18.64;68.74;100103.84;4867977;28;120117;-79
2021/07/29 10:56:20;;;;;;;12.25;2.25;;;;;;;18.74;68.96;100097.94;4866464;28;119663;-79
2021/07/29 10:58:47;;;;;;;17.63;3.30;;;;;;;18.87;69.57;100092.50;4871256;28;120304;-79
2021/07/29 11:01:15;;;;;;;15.85;2.65;;;;;;;19.06;69.92;100100.88;4864919;28;119778;-79
2021/07/29 11:04:01;;;;;;;21.05;2.78;;;;;;;19.24;69.53;100091.81;4860244;28;120050;-79
2021/07/29 11:06:45;;;;;;;18.63;3.33;;;;;;;19.35;69.37;100094.44;4864365;28;119670;-78
2021/07/29 11:09:15;;;;;;;22.48;3.47;;;;;;;19.54;69.46;100095.22;4865378;28;120286;-78
2021/07/29 11:11:50;;;;;;;12.32;3.08;;;;;;;19.68;68.73;100092.53;4851230;28;120879;-78
2021/07/29 11:14:29;;;;;;;13.55;3.20;;;;;;;19.72;68.31;100088.16;4849712;28;120398;-79
2021/07/29 11:17:01;;;;;;;20.52;3.38;;;;;;;19.76;68.86;100087.84;4861211;28;122323;-79
2021/07/29 11:19:28;;;;;;;24.77;4.25;;;;;;;19.81;69.39;100084.97;4868629;28;122754;-79